sensor_id;sensor_type;location;lat;lon;timestamp;P1;durP1;ratioP1;P2;durP2;ratioP2
72261;SDS011;60173;52.112;8.648;2023-07-30T16:28:53;42.83;;;18.90;;
72261;SDS011;60173;52.112;8.648;2023-07-30T16:31:19;38.35;;;17.90;;
72261;SDS011;60173;52.112;8.648;2023-07-30T16:33:45;33.10;;;18.25;;
72261;SDS011;60173;52.112;8.648;2023-07-30T16:36:12;33.72;;;17.55;;
72261;SDS011;60173;52.112;8.648;2023-07-30T16:38:38;36.90;;;18.45;;
72261;SDS011;60173;52.112;8.648;2023-07-30T16:41:05;34.72;;;17.95;;
72261;SDS011;60173;52.112;8.648;2023-07-30T16:43:31;39.70;;;18.60;;
72261;SDS011;60173;52.112;8.648;2023-07-30T16:45:58;29.33;;;17.17;;
72261;SDS011;60173;52.112;8.648;2023-07-30T16:48:25;33.47;;;17.27;;
72261;SDS011;60173;52.112;8.648;2023-07-30T16:50:51;31.83;;;16.88;;
72261;SDS011;60173;52.112;8.648;2023-07-30T16:53:18;32.13;;;16.95;;
72261;SDS011;60173;52.112;8.648;2023-07-30T16:55:44;30.48;;;16.88;;
72261;SDS011;60173;52.112;8.648;2023-07-30T16:58:11;37.83;;;19.08;;
72261;SDS011;60173;52.112;8.648;2023-07-30T17:00:37;40.90;;;19.65;;
72261;SDS011;60173;52.112;8.648;2023-07-30T17:18:44;59.13;;;26.20;;
72261;SDS011;60173;52.112;8.648;2023-07-30T17:21:10;56.30;;;24.98;;
72261;SDS011;60173;52.112;8.648;2023-07-30T17:32:45;8.82;;;2.00;;
72261;SDS011;60173;52.112;8.648;2023-07-30T17:35:12;8.98;;;5.00;;
72261;SDS011;60173;52.112;8.648;2023-07-30T17:37:38;7.63;;;2.55;;
72261;SDS011;60173;52.112;8.648;2023-07-30T17:40:08;5.40;;;1.85;;
72261;SDS011;60173;52.112;8.648;2023-07-30T17:42:36;5.85;;;1.88;;
72261;SDS011;60173;52.112;8.648;2023-07-30T17:45:03;5.38;;;1.63;;
72261;SDS011;60173;52.112;8.648;2023-07-30T17:47:31;6.28;;;1.58;;
72261;SDS011;60173;52.112;8.648;2023-07-30T17:49:57;7.20;;;1.70;;
72261;SDS011;60173;52.112;8.648;2023-07-30T17:52:23;4.72;;;1.60;;
72261;SDS011;60173;52.112;8.648;2023-07-30T17:54:50;5.20;;;1.58;;
72261;SDS011;60173;52.112;8.648;2023-07-30T17:57:16;6.68;;;2.40;;
72261;SDS011;60173;52.112;8.648;2023-07-30T17:59:43;4.88;;;1.80;;
72261;SDS011;60173;52.112;8.648;2023-07-30T18:02:09;7.63;;;1.88;;
72261;SDS011;60173;52.112;8.648;2023-07-30T18:04:36;6.72;;;2.10;;
72261;SDS011;60173;52.112;8.648;2023-07-30T18:07:02;8.23;;;1.95;;
72261;SDS011;60173;52.112;8.648;2023-07-30T18:09:29;9.52;;;2.60;;
72261;SDS011;60173;52.112;8.648;2023-07-30T18:11:55;5.35;;;1.88;;
72261;SDS011;60173;52.112;8.648;2023-07-30T18:14:21;5.03;;;1.70;;
72261;SDS011;60173;52.112;8.648;2023-07-30T18:16:48;6.55;;;1.90;;
72261;SDS011;60173;52.112;8.648;2023-07-30T18:19:14;6.78;;;1.80;;
72261;SDS011;60173;52.112;8.648;2023-07-30T18:21:41;5.80;;;1.75;;
72261;SDS011;60173;52.112;8.648;2023-07-30T18:24:07;8.02;;;2.42;;
72261;SDS011;60173;52.112;8.648;2023-07-30T18:26:34;10.07;;;1.83;;
72261;SDS011;60173;52.112;8.648;2023-07-30T18:29:00;5.30;;;1.73;;
72261;SDS011;60173;52.112;8.648;2023-07-30T18:31:26;10.43;;;1.85;;
72261;SDS011;60173;52.112;8.648;2023-07-30T18:33:53;7.28;;;2.10;;
72261;SDS011;60173;52.112;8.648;2023-07-30T18:36:19;6.30;;;1.92;;
72261;SDS011;60173;52.112;8.648;2023-07-30T18:38:46;9.20;;;1.80;;
72261;SDS011;60173;52.112;8.648;2023-07-30T18:41:12;7.20;;;1.58;;
72261;SDS011;60173;52.112;8.648;2023-07-30T18:43:38;8.68;;;2.17;;
72261;SDS011;60173;52.112;8.648;2023-07-30T18:46:05;4.82;;;1.60;;
72261;SDS011;60173;52.112;8.648;2023-07-30T18:48:31;5.72;;;1.88;;
72261;SDS011;60173;52.112;8.648;2023-07-30T18:50:58;6.38;;;2.00;;
72261;SDS011;60173;52.112;8.648;2023-07-30T18:53:24;8.05;;;1.95;;
72261;SDS011;60173;52.112;8.648;2023-07-30T18:55:51;7.53;;;1.85;;
72261;SDS011;60173;52.112;8.648;2023-07-30T18:58:17;7.80;;;1.70;;
72261;SDS011;60173;52.112;8.648;2023-07-30T19:00:45;4.63;;;1.80;;
72261;SDS011;60173;52.112;8.648;2023-07-30T19:03:12;5.68;;;1.65;;
72261;SDS011;60173;52.112;8.648;2023-07-30T19:05:39;7.47;;;1.98;;
72261;SDS011;60173;52.112;8.648;2023-07-30T19:08:05;7.00;;;1.88;;
72261;SDS011;60173;52.112;8.648;2023-07-30T19:10:31;6.97;;;1.92;;
72261;SDS011;60173;52.112;8.648;2023-07-30T19:12:58;7.05;;;1.80;;
72261;SDS011;60173;52.112;8.648;2023-07-30T19:15:24;11.38;;;2.22;;
72261;SDS011;60173;52.112;8.648;2023-07-30T19:17:51;5.13;;;1.50;;
72261;SDS011;60173;52.112;8.648;2023-07-30T19:20:17;8.02;;;1.80;;
72261;SDS011;60173;52.112;8.648;2023-07-30T19:22:43;9.27;;;1.90;;
72261;SDS011;60173;52.112;8.648;2023-07-30T19:25:10;5.43;;;1.80;;
72261;SDS011;60173;52.112;8.648;2023-07-30T19:27:36;12.15;;;2.22;;
72261;SDS011;60173;52.112;8.648;2023-07-30T19:30:03;6.82;;;2.03;;
72261;SDS011;60173;52.112;8.648;2023-07-30T19:32:30;8.93;;;1.88;;
72261;SDS011;60173;52.112;8.648;2023-07-30T19:34:56;8.77;;;2.10;;
72261;SDS011;60173;52.112;8.648;2023-07-30T19:37:23;8.63;;;2.08;;
72261;SDS011;60173;52.112;8.648;2023-07-30T19:39:49;7.63;;;2.30;;
72261;SDS011;60173;52.112;8.648;2023-07-30T19:42:15;7.15;;;1.90;;
72261;SDS011;60173;52.112;8.648;2023-07-30T19:44:42;9.05;;;2.00;;
72261;SDS011;60173;52.112;8.648;2023-07-30T19:47:09;6.18;;;1.80;;
72261;SDS011;60173;52.112;8.648;2023-07-30T19:49:36;7.53;;;2.00;;
72261;SDS011;60173;52.112;8.648;2023-07-30T19:52:03;6.93;;;1.70;;
72261;SDS011;60173;52.112;8.648;2023-07-30T19:54:30;5.03;;;1.80;;
72261;SDS011;60173;52.112;8.648;2023-07-30T19:56:57;9.20;;;2.35;;
72261;SDS011;60173;52.112;8.648;2023-07-30T19:59:23;6.93;;;2.00;;
72261;SDS011;60173;52.112;8.648;2023-07-30T20:01:49;8.60;;;2.20;;
72261;SDS011;60173;52.112;8.648;2023-07-30T20:04:16;5.07;;;1.88;;
72261;SDS011;60173;52.112;8.648;2023-07-30T20:06:42;5.60;;;2.30;;
72261;SDS011;60173;52.112;8.648;2023-07-30T20:09:08;5.50;;;1.92;;
72261;SDS011;60173;52.112;8.648;2023-07-30T20:11:35;5.50;;;1.60;;
72261;SDS011;60173;52.112;8.648;2023-07-30T20:14:01;5.20;;;1.60;;
72261;SDS011;60173;52.112;8.648;2023-07-30T20:16:28;7.20;;;1.88;;
72261;SDS011;60173;52.112;8.648;2023-07-30T20:18:54;15.85;;;3.05;;
72261;SDS011;60173;52.112;8.648;2023-07-30T20:21:20;8.38;;;2.10;;
72261;SDS011;60173;52.112;8.648;2023-07-30T20:23:47;8.20;;;2.30;;
72261;SDS011;60173;52.112;8.648;2023-07-30T20:26:14;6.40;;;2.25;;
72261;SDS011;60173;52.112;8.648;2023-07-30T20:28:41;9.82;;;2.40;;
72261;SDS011;60173;52.112;8.648;2023-07-30T20:31:09;6.50;;;1.83;;
72261;SDS011;60173;52.112;8.648;2023-07-30T20:33:35;9.60;;;2.75;;
72261;SDS011;60173;52.112;8.648;2023-07-30T20:36:02;6.30;;;2.05;;
72261;SDS011;60173;52.112;8.648;2023-07-30T20:38:29;7.70;;;2.10;;
72261;SDS011;60173;52.112;8.648;2023-07-30T20:40:58;10.15;;;2.38;;
72261;SDS011;60173;52.112;8.648;2023-07-30T20:43:25;9.18;;;2.45;;
72261;SDS011;60173;52.112;8.648;2023-07-30T20:45:51;11.23;;;2.30;;
72261;SDS011;60173;52.112;8.648;2023-07-30T20:48:18;10.65;;;2.90;;
72261;SDS011;60173;52.112;8.648;2023-07-30T20:50:44;10.95;;;2.47;;
72261;SDS011;60173;52.112;8.648;2023-07-30T20:53:11;8.18;;;2.45;;
72261;SDS011;60173;52.112;8.648;2023-07-30T20:55:37;8.82;;;2.70;;
72261;SDS011;60173;52.112;8.648;2023-07-30T20:58:04;9.35;;;2.30;;
72261;SDS011;60173;52.112;8.648;2023-07-30T21:00:30;12.60;;;2.63;;
72261;SDS011;60173;52.112;8.648;2023-07-30T21:02:56;9.15;;;2.58;;
72261;SDS011;60173;52.112;8.648;2023-07-30T21:05:23;7.68;;;1.90;;
72261;SDS011;60173;52.112;8.648;2023-07-30T21:07:49;4.40;;;2.05;;
72261;SDS011;60173;52.112;8.648;2023-07-30T21:10:16;7.95;;;2.17;;
72261;SDS011;60173;52.112;8.648;2023-07-30T21:12:42;6.43;;;1.80;;
72261;SDS011;60173;52.112;8.648;2023-07-30T21:15:09;6.25;;;2.55;;
72261;SDS011;60173;52.112;8.648;2023-07-30T21:17:37;6.07;;;2.25;;
72261;SDS011;60173;52.112;8.648;2023-07-30T21:20:03;6.35;;;2.47;;
72261;SDS011;60173;52.112;8.648;2023-07-30T21:22:30;4.97;;;2.15;;
72261;SDS011;60173;52.112;8.648;2023-07-30T21:24:57;8.57;;;2.53;;
72261;SDS011;60173;52.112;8.648;2023-07-30T21:27:23;11.40;;;2.67;;
72261;SDS011;60173;52.112;8.648;2023-07-30T21:29:49;9.65;;;2.58;;
72261;SDS011;60173;52.112;8.648;2023-07-30T21:32:16;8.00;;;2.80;;
72261;SDS011;60173;52.112;8.648;2023-07-30T21:34:42;8.18;;;3.75;;
72261;SDS011;60173;52.112;8.648;2023-07-30T21:37:09;9.50;;;3.20;;
72261;SDS011;60173;52.112;8.648;2023-07-30T21:39:35;6.18;;;3.67;;
72261;SDS011;60173;52.112;8.648;2023-07-30T21:42:02;9.88;;;3.67;;
72261;SDS011;60173;52.112;8.648;2023-07-30T21:44:28;8.48;;;4.30;;
72261;SDS011;60173;52.112;8.648;2023-07-30T21:46:55;12.45;;;5.03;;
72261;SDS011;60173;52.112;8.648;2023-07-30T21:49:21;9.75;;;5.53;;
72261;SDS011;60173;52.112;8.648;2023-07-30T21:51:47;9.60;;;5.18;;
72261;SDS011;60173;52.112;8.648;2023-07-30T21:54:14;6.63;;;5.25;;
72261;SDS011;60173;52.112;8.648;2023-07-30T21:56:40;8.88;;;5.40;;
72261;SDS011;60173;52.112;8.648;2023-07-30T21:59:07;8.77;;;5.47;;
72261;SDS011;60173;52.112;8.648;2023-07-30T22:01:33;11.10;;;5.50;;
72261;SDS011;60173;52.112;8.648;2023-07-30T22:04:00;12.32;;;6.22;;
72261;SDS011;60173;52.112;8.648;2023-07-30T22:06:26;11.18;;;5.90;;
72261;SDS011;60173;52.112;8.648;2023-07-30T22:08:53;8.90;;;5.47;;
72261;SDS011;60173;52.112;8.648;2023-07-30T22:11:19;8.25;;;5.32;;
72261;SDS011;60173;52.112;8.648;2023-07-30T22:13:45;7.63;;;5.30;;
72261;SDS011;60173;52.112;8.648;2023-07-30T22:16:12;9.65;;;5.00;;
72261;SDS011;60173;52.112;8.648;2023-07-30T22:18:38;10.05;;;4.90;;
72261;SDS011;60173;52.112;8.648;2023-07-30T22:21:05;7.32;;;4.85;;
72261;SDS011;60173;52.112;8.648;2023-07-30T22:23:31;5.57;;;4.18;;
72261;SDS011;60173;52.112;8.648;2023-07-30T22:25:57;10.20;;;4.63;;
72261;SDS011;60173;52.112;8.648;2023-07-30T22:28:24;12.35;;;4.70;;
72261;SDS011;60173;52.112;8.648;2023-07-30T22:30:51;10.02;;;4.15;;
72261;SDS011;60173;52.112;8.648;2023-07-30T22:33:17;7.72;;;4.35;;
72261;SDS011;60173;52.112;8.648;2023-07-30T22:35:44;8.02;;;4.18;;
72261;SDS011;60173;52.112;8.648;2023-07-30T22:38:10;6.93;;;3.90;;
72261;SDS011;60173;52.112;8.648;2023-07-30T22:40:37;9.50;;;3.97;;
72261;SDS011;60173;52.112;8.648;2023-07-30T22:43:04;7.68;;;4.07;;
72261;SDS011;60173;52.112;8.648;2023-07-30T22:45:31;7.53;;;3.85;;
72261;SDS011;60173;52.112;8.648;2023-07-30T22:47:57;10.00;;;4.28;;
72261;SDS011;60173;52.112;8.648;2023-07-30T22:50:24;7.78;;;3.70;;
72261;SDS011;60173;52.112;8.648;2023-07-30T22:52:50;6.95;;;3.45;;
72261;SDS011;60173;52.112;8.648;2023-07-30T22:55:16;5.97;;;3.13;;
72261;SDS011;60173;52.112;8.648;2023-07-30T22:57:43;7.28;;;3.42;;
72261;SDS011;60173;52.112;8.648;2023-07-30T23:00:09;7.55;;;3.85;;
72261;SDS011;60173;52.112;8.648;2023-07-30T23:02:36;7.30;;;3.40;;
72261;SDS011;60173;52.112;8.648;2023-07-30T23:05:03;8.82;;;3.47;;
72261;SDS011;60173;52.112;8.648;2023-07-30T23:07:29;6.88;;;3.13;;
72261;SDS011;60173;52.112;8.648;2023-07-30T23:09:56;8.68;;;3.05;;
72261;SDS011;60173;52.112;8.648;2023-07-30T23:12:22;5.15;;;3.35;;
72261;SDS011;60173;52.112;8.648;2023-07-30T23:14:48;5.90;;;3.35;;
72261;SDS011;60173;52.112;8.648;2023-07-30T23:17:15;10.65;;;4.25;;
72261;SDS011;60173;52.112;8.648;2023-07-30T23:19:41;8.00;;;3.58;;
72261;SDS011;60173;52.112;8.648;2023-07-30T23:22:08;8.32;;;3.83;;
72261;SDS011;60173;52.112;8.648;2023-07-30T23:24:34;5.38;;;3.28;;
72261;SDS011;60173;52.112;8.648;2023-07-30T23:27:00;4.93;;;3.20;;
72261;SDS011;60173;52.112;8.648;2023-07-30T23:29:27;7.53;;;3.45;;
72261;SDS011;60173;52.112;8.648;2023-07-30T23:31:53;3.78;;;2.97;;
72261;SDS011;60173;52.112;8.648;2023-07-30T23:34:20;6.07;;;3.33;;
72261;SDS011;60173;52.112;8.648;2023-07-30T23:36:46;6.88;;;3.13;;
72261;SDS011;60173;52.112;8.648;2023-07-30T23:39:12;5.32;;;3.30;;
72261;SDS011;60173;52.112;8.648;2023-07-30T23:41:39;4.93;;;2.95;;
72261;SDS011;60173;52.112;8.648;2023-07-30T23:44:06;7.00;;;2.90;;
72261;SDS011;60173;52.112;8.648;2023-07-30T23:46:32;6.10;;;3.20;;
72261;SDS011;60173;52.112;8.648;2023-07-30T23:48:58;5.90;;;2.65;;
72261;SDS011;60173;52.112;8.648;2023-07-30T23:51:25;5.00;;;2.33;;
72261;SDS011;60173;52.112;8.648;2023-07-30T23:53:51;5.13;;;2.55;;
72261;SDS011;60173;52.112;8.648;2023-07-30T23:56:18;4.80;;;2.63;;
72261;SDS011;60173;52.112;8.648;2023-07-30T23:58:44;5.55;;;2.30;;
